createdAt,value
2018-03-27T00:01:32.074Z,38.37
2018-03-27T00:04:01.736Z,37.50
2018-03-27T00:06:31.358Z,36.33
2018-03-27T00:09:00.997Z,36.07
2018-03-27T00:11:30.480Z,36.10
2018-03-27T00:13:59.953Z,37.37
2018-03-27T00:16:29.476Z,39.37
2018-03-27T00:18:58.920Z,39.67
2018-03-27T00:21:28.389Z,48.90
2018-03-27T00:23:57.878Z,40.63
2018-03-27T00:26:27.347Z,39.43
2018-03-27T00:29:02.617Z,37.40
2018-03-27T00:31:44.004Z,36.20
2018-03-27T00:34:25.398Z,34.40
2018-03-27T00:37:06.703Z,38.20
2018-03-27T00:39:47.975Z,36.03
2018-03-27T00:42:23.462Z,35.27
2018-03-27T00:44:52.725Z,34.40
2018-03-27T00:47:21.989Z,33.63
2018-03-27T00:49:51.287Z,35.10
2018-03-27T00:52:20.722Z,37.63
2018-03-27T00:54:50.207Z,34.50
2018-03-27T00:57:19.673Z,35.77
2018-03-27T00:59:49.177Z,35.13
2018-03-27T01:02:32.950Z,35.20
2018-03-27T01:05:08.418Z,39.10
2018-03-27T01:07:38.030Z,37.87
2018-03-27T01:10:07.660Z,39.70
2018-03-27T01:15:38.523Z,36.77
2018-03-27T01:18:09.032Z,38.50
2018-03-27T01:20:50.819Z,36.07
2018-03-27T01:23:20.264Z,33.80
2018-03-27T01:25:49.715Z,34.20
2018-03-27T01:28:19.172Z,33.43
2018-03-27T01:30:48.627Z,34.57
2018-03-27T01:33:18.081Z,36.80
2018-03-27T01:35:47.538Z,32.43
2018-03-27T01:38:16.997Z,32.43
2018-03-27T01:40:46.450Z,32.80
2018-03-27T01:43:15.910Z,33.10
2018-03-27T01:45:45.365Z,31.90
2018-03-27T01:48:14.812Z,32.53
2018-03-27T01:50:44.294Z,32.37
2018-03-27T01:53:13.744Z,31.83
2018-03-27T01:55:43.229Z,31.90
2018-03-27T01:58:12.686Z,30.87
2018-03-27T02:00:42.136Z,32.70
2018-03-27T02:03:11.597Z,31.73
2018-03-27T02:05:41.060Z,31.00
2018-03-27T02:08:10.523Z,30.30
2018-03-27T02:10:39.563Z,32.90
2018-03-27T02:13:14.712Z,30.93
2018-03-27T02:15:49.960Z,31.30
2018-03-27T02:18:25.669Z,32.77
2018-03-27T02:21:01.153Z,32.77
2018-03-27T02:23:34.162Z,31.83
2018-03-27T02:26:03.615Z,31.67
2018-03-27T02:28:33.082Z,31.03
2018-03-27T02:31:02.537Z,30.10
2018-03-27T02:33:32.002Z,29.90
2018-03-27T02:36:01.454Z,32.63
2018-03-27T02:38:30.918Z,35.53
2018-03-27T02:41:00.375Z,37.63
2018-03-27T02:43:29.828Z,37.00
2018-03-27T02:45:59.278Z,34.50
2018-03-27T02:48:28.761Z,37.20
2018-03-27T02:50:58.218Z,39.97
2018-03-27T02:53:27.684Z,43.33
2018-03-27T02:55:57.153Z,41.73
2018-03-27T02:58:26.630Z,38.50
2018-03-27T03:00:56.081Z,41.33
2018-03-27T03:03:25.546Z,45.73
2018-03-27T03:05:55.008Z,41.37
2018-03-27T03:08:24.476Z,38.73
2018-03-27T03:10:53.947Z,43.87
2018-03-27T03:13:23.417Z,41.67
2018-03-27T03:15:52.880Z,40.10
2018-03-27T03:18:22.340Z,40.57
2018-03-27T03:20:51.801Z,44.37
2018-03-27T03:23:21.267Z,41.20
2018-03-27T03:25:50.727Z,41.47
2018-03-27T03:28:20.246Z,40.30
2018-03-27T03:30:49.646Z,38.13
2018-03-27T03:33:19.101Z,44.17
2018-03-27T03:35:48.567Z,40.17
2018-03-27T03:38:18.027Z,42.10
2018-03-27T03:40:47.489Z,39.93
2018-03-27T03:43:16.948Z,39.20
2018-03-27T03:45:46.412Z,40.53
2018-03-27T03:48:15.867Z,39.57
2018-03-27T03:50:45.330Z,37.93
2018-03-27T03:53:14.799Z,37.87
2018-03-27T03:55:44.291Z,38.50
2018-03-27T03:58:13.760Z,35.33
2018-03-27T04:00:43.255Z,35.07
2018-03-27T04:03:12.693Z,34.80
2018-03-27T04:05:42.145Z,34.20
2018-03-27T04:08:11.638Z,34.97
2018-03-27T04:10:41.081Z,33.73
2018-03-27T04:13:10.533Z,36.20
2018-03-27T04:15:39.993Z,37.10
2018-03-27T04:18:09.452Z,38.83
2018-03-27T04:20:38.907Z,39.00
2018-03-27T04:23:09.789Z,39.63
2018-03-27T04:25:39.243Z,43.07
2018-03-27T04:28:08.703Z,48.83
2018-03-27T04:30:38.172Z,43.27
2018-03-27T04:33:07.625Z,43.23
2018-03-27T04:35:37.079Z,45.60
2018-03-27T04:38:06.541Z,45.53
2018-03-27T04:40:35.990Z,48.90
2018-03-27T04:43:05.453Z,47.70
2018-03-27T04:45:34.920Z,43.90
2018-03-27T04:48:04.377Z,51.10
2018-03-27T04:50:33.836Z,42.77
2018-03-27T04:53:03.297Z,40.83
2018-03-27T04:55:49.448Z,44.50
2018-03-27T04:58:18.903Z,40.40
2018-03-27T05:00:48.355Z,44.13
2018-03-27T05:03:17.803Z,43.80
2018-03-27T05:05:47.276Z,39.50
2018-03-27T05:08:16.728Z,39.50
2018-03-27T05:10:46.196Z,42.13
2018-03-27T05:13:15.644Z,42.07
2018-03-27T05:15:45.099Z,36.83
2018-03-27T05:18:14.543Z,38.23
2018-03-27T05:20:44.003Z,41.83
2018-03-27T05:23:13.451Z,40.10
2018-03-27T05:25:42.910Z,39.57
2018-03-27T05:28:12.364Z,42.03
2018-03-27T05:30:41.816Z,39.07
2018-03-27T05:33:11.259Z,38.80
2018-03-27T05:35:40.715Z,40.80
2018-03-27T05:38:10.173Z,40.33
2018-03-27T05:40:39.631Z,42.90
2018-03-27T05:43:09.077Z,43.03
2018-03-27T05:45:38.543Z,42.77
2018-03-27T05:48:08.001Z,43.50
2018-03-27T05:50:37.442Z,45.27
2018-03-27T05:53:06.899Z,44.80
2018-03-27T05:55:36.371Z,43.03
2018-03-27T05:58:05.832Z,41.07
2018-03-27T06:00:35.283Z,41.60
2018-03-27T06:03:04.741Z,38.70
2018-03-27T06:05:34.192Z,40.83
2018-03-27T06:08:03.644Z,40.93
2018-03-27T06:10:33.103Z,42.17
2018-03-27T06:13:03.101Z,45.67
2018-03-27T06:15:33.973Z,41.90
2018-03-27T06:18:03.561Z,43.90
2018-03-27T06:20:33.003Z,46.40
2018-03-27T06:23:02.466Z,43.33
2018-03-27T06:25:31.910Z,40.00
2018-03-27T06:28:01.372Z,38.30
2018-03-27T06:30:30.829Z,40.27
2018-03-27T06:33:00.291Z,45.43
2018-03-27T06:35:29.746Z,43.33
2018-03-27T06:37:59.205Z,41.80
2018-03-27T06:40:28.657Z,40.07
2018-03-27T06:42:58.114Z,40.70
2018-03-27T06:45:27.565Z,38.70
2018-03-27T06:47:57.018Z,39.77
2018-03-27T06:50:26.466Z,34.53
2018-03-27T06:52:55.967Z,37.47
2018-03-27T06:55:25.380Z,37.73
2018-03-27T06:57:54.845Z,36.90
2018-03-27T07:00:28.021Z,39.70
2018-03-27T07:02:57.511Z,35.87
2018-03-27T07:05:26.931Z,38.60
2018-03-27T07:07:56.386Z,38.17
2018-03-27T07:10:25.844Z,38.63
2018-03-27T07:12:55.282Z,41.30
2018-03-27T07:15:24.760Z,37.47
2018-03-27T07:17:54.234Z,36.97
2018-03-27T07:20:23.705Z,34.73
2018-03-27T07:22:53.135Z,40.43
2018-03-27T07:25:22.827Z,37.67
2018-03-27T07:27:52.640Z,39.00
2018-03-27T07:30:22.900Z,40.27
2018-03-27T07:32:52.438Z,40.50
2018-03-27T07:35:21.883Z,38.60
2018-03-27T07:37:51.333Z,40.60
2018-03-27T07:40:20.790Z,35.80
2018-03-27T07:42:50.253Z,35.27
2018-03-27T07:45:19.713Z,33.63
2018-03-27T07:47:49.149Z,31.03
2018-03-27T07:50:18.600Z,31.33
2018-03-27T07:52:48.061Z,35.33
2018-03-27T07:55:17.518Z,36.37
2018-03-27T07:57:46.983Z,35.17
2018-03-27T08:00:16.422Z,35.83
2018-03-27T08:02:45.869Z,37.20
2018-03-27T08:05:15.320Z,33.60
2018-03-27T08:07:44.766Z,37.97
2018-03-27T08:10:14.226Z,34.17
2018-03-27T08:12:43.679Z,33.70
2018-03-27T08:15:13.132Z,32.90
2018-03-27T08:17:42.583Z,34.90
2018-03-27T08:20:12.043Z,35.87
2018-03-27T08:22:41.507Z,36.40
2018-03-27T08:25:10.970Z,34.87
2018-03-27T08:27:40.416Z,32.87
2018-03-27T08:30:09.887Z,35.27
2018-03-27T08:32:39.338Z,33.90
2018-03-27T08:35:08.809Z,35.67
2018-03-27T08:37:38.270Z,34.53
2018-03-27T08:40:07.748Z,33.77
2018-03-27T08:42:37.188Z,32.90
2018-03-27T08:45:06.656Z,33.00
2018-03-27T08:47:36.098Z,34.37
2018-03-27T08:50:05.607Z,32.63
2018-03-27T08:52:35.953Z,31.17
2018-03-27T08:55:05.408Z,31.03
2018-03-27T08:57:34.866Z,30.80
2018-03-27T09:00:04.435Z,28.43
2018-03-27T09:02:33.894Z,27.63
2018-03-27T09:05:03.391Z,29.27
2018-03-27T09:07:32.824Z,28.30
2018-03-27T09:10:02.288Z,27.87
2018-03-27T09:21:19.712Z,29.03
2018-03-27T09:23:49.174Z,27.47
2018-03-27T09:26:18.676Z,27.03
2018-03-27T09:28:48.151Z,27.07
2018-03-27T09:31:17.628Z,29.57
2018-03-27T09:33:47.167Z,28.93
2018-03-27T09:36:16.634Z,27.53
2018-03-27T09:38:46.083Z,28.47
2018-03-27T09:41:15.543Z,26.50
2018-03-27T09:43:44.988Z,26.20
2018-03-27T09:46:14.454Z,23.70
2018-03-27T09:48:43.906Z,24.80
2018-03-27T09:51:13.359Z,23.87
2018-03-27T09:59:36.812Z,22.77
2018-03-27T10:02:06.291Z,18.57
2018-03-27T10:04:35.762Z,17.57
2018-03-27T10:07:05.230Z,16.07
2018-03-27T10:09:34.710Z,16.17
2018-03-27T10:12:04.193Z,19.10
2018-03-27T10:14:33.674Z,17.20
2018-03-27T10:17:03.149Z,16.60
2018-03-27T10:19:32.609Z,16.73
2018-03-27T10:22:02.074Z,16.77
2018-03-27T10:24:31.540Z,17.13
2018-03-27T10:27:01.011Z,16.50
2018-03-27T10:29:30.467Z,17.53
2018-03-27T10:31:59.971Z,15.17
2018-03-27T10:34:29.511Z,15.67
2018-03-27T10:36:58.970Z,15.83
2018-03-27T10:39:28.425Z,16.10
2018-03-27T10:41:57.881Z,12.97
2018-03-27T10:44:27.349Z,13.40
2018-03-27T10:46:56.810Z,14.70
2018-03-27T10:49:26.276Z,15.70
2018-03-27T10:51:55.773Z,13.60
2018-03-27T10:54:25.241Z,9.93
2018-03-27T10:56:54.705Z,10.30
2018-03-27T10:59:24.191Z,10.90
2018-03-27T11:01:53.652Z,8.17
2018-03-27T11:04:23.129Z,10.20
2018-03-27T11:06:52.602Z,11.97
2018-03-27T11:09:22.088Z,12.73
2018-03-27T11:11:51.558Z,11.37
2018-03-27T11:14:21.043Z,11.00
2018-03-27T11:16:50.492Z,9.97
2018-03-27T11:19:19.962Z,8.13
2018-03-27T11:21:49.413Z,10.97
2018-03-27T11:24:18.904Z,10.00
2018-03-27T11:26:48.376Z,10.77
2018-03-27T11:29:17.899Z,11.30
2018-03-27T11:31:47.318Z,11.03
2018-03-27T11:34:16.782Z,11.13
2018-03-27T11:36:46.242Z,9.87
2018-03-27T11:39:15.704Z,9.37
2018-03-27T11:41:45.150Z,8.33
2018-03-27T11:44:14.613Z,8.77
2018-03-27T11:46:44.070Z,8.17
2018-03-27T11:49:13.542Z,7.57
2018-03-27T11:51:42.993Z,7.67
2018-03-27T11:54:12.460Z,6.40
2018-03-27T11:56:41.913Z,7.03
2018-03-27T11:59:11.380Z,6.37
2018-03-27T12:01:40.830Z,9.10
2018-03-27T12:04:10.294Z,5.80
2018-03-27T12:06:39.753Z,5.57
2018-03-27T12:09:09.233Z,9.10
2018-03-27T12:11:38.703Z,12.33
2018-03-27T12:14:08.167Z,6.67
2018-03-27T12:16:37.625Z,6.47
2018-03-27T12:19:07.091Z,7.13
2018-03-27T12:21:36.548Z,8.07
2018-03-27T12:24:06.012Z,7.53
2018-03-27T12:26:35.472Z,8.73
2018-03-27T12:29:04.943Z,7.33
2018-03-27T12:31:34.396Z,7.03
2018-03-27T12:34:03.873Z,7.90
2018-03-27T12:36:33.329Z,8.73
2018-03-27T12:39:02.795Z,9.23
2018-03-27T12:41:32.263Z,8.20
2018-03-27T12:44:01.735Z,8.17
2018-03-27T12:46:31.196Z,7.90
2018-03-27T12:49:00.652Z,7.03
2018-03-27T12:51:30.117Z,7.63
2018-03-27T12:53:59.629Z,8.00
2018-03-27T12:56:29.063Z,6.70
2018-03-27T12:58:58.533Z,6.53
2018-03-27T13:01:27.994Z,8.20
2018-03-27T13:03:57.465Z,8.33
2018-03-27T13:06:26.928Z,7.63
2018-03-27T13:08:56.425Z,8.37
2018-03-27T13:11:25.881Z,8.17
2018-03-27T13:13:55.345Z,8.17
2018-03-27T13:16:24.801Z,6.90
2018-03-27T13:18:54.254Z,6.47
2018-03-27T13:21:23.712Z,6.30
2018-03-27T13:23:53.182Z,7.03
2018-03-27T13:26:22.641Z,7.00
2018-03-27T13:28:52.093Z,5.50
2018-03-27T13:31:21.583Z,5.47
2018-03-27T13:33:51.038Z,5.53
2018-03-27T13:36:20.492Z,5.37
2018-03-27T13:38:49.983Z,5.53
2018-03-27T13:41:19.416Z,4.83
2018-03-27T13:43:48.877Z,4.97
2018-03-27T13:46:18.334Z,5.07
2018-03-27T13:48:47.780Z,5.40
2018-03-27T13:51:17.253Z,5.27
2018-03-27T13:53:46.728Z,4.57
2018-03-27T13:56:16.193Z,4.63
2018-03-27T13:58:45.635Z,3.77
2018-03-27T14:01:15.101Z,3.87
2018-03-27T14:03:44.555Z,3.13
2018-03-27T14:06:14.040Z,3.03
2018-03-27T14:08:43.496Z,3.50
2018-03-27T14:11:13.930Z,3.63
2018-03-27T14:13:43.398Z,3.53
2018-03-27T14:16:12.852Z,3.60
2018-03-27T14:18:42.313Z,3.27
2018-03-27T14:21:11.777Z,4.00
2018-03-27T14:23:41.277Z,4.20
2018-03-27T14:26:10.705Z,4.13
2018-03-27T14:28:40.180Z,3.90
2018-03-27T14:31:09.625Z,3.97
2018-03-27T14:33:39.114Z,4.00
2018-03-27T14:36:08.552Z,4.20
2018-03-27T14:38:38.009Z,4.17
2018-03-27T14:41:07.464Z,3.83
2018-03-27T14:43:36.930Z,3.53
2018-03-27T14:46:06.391Z,3.77
2018-03-27T14:48:35.857Z,3.27
2018-03-27T14:51:05.309Z,3.80
2018-03-27T14:53:34.789Z,2.80
2018-03-27T14:56:04.236Z,2.87
2018-03-27T14:58:33.716Z,3.07
2018-03-27T15:01:03.164Z,3.10
2018-03-27T15:03:32.640Z,3.33
2018-03-27T15:06:02.098Z,3.50
2018-03-27T15:08:31.562Z,3.30
2018-03-27T15:11:01.021Z,3.50
2018-03-27T15:13:30.489Z,3.47
2018-03-27T15:15:59.946Z,3.97
2018-03-27T15:18:29.416Z,4.40
2018-03-27T15:20:58.861Z,4.67
2018-03-27T15:23:28.336Z,4.27
2018-03-27T15:25:57.800Z,3.93
2018-03-27T15:28:27.270Z,4.83
2018-03-27T15:30:56.734Z,5.20
2018-03-27T15:33:26.197Z,4.30
2018-03-27T15:35:55.649Z,4.20
2018-03-27T15:38:25.110Z,4.17
2018-03-27T15:40:54.589Z,4.00
2018-03-27T15:43:24.052Z,3.67
2018-03-27T15:45:53.510Z,4.10
2018-03-27T15:48:22.970Z,3.70
2018-03-27T15:50:52.431Z,3.70
2018-03-27T15:53:21.900Z,4.17
2018-03-27T15:55:51.361Z,4.00
2018-03-27T15:58:20.835Z,4.00
2018-03-27T16:00:50.285Z,3.57
2018-03-27T16:03:19.744Z,3.73
2018-03-27T16:05:49.213Z,3.67
2018-03-27T16:08:18.666Z,4.00
2018-03-27T16:10:48.585Z,3.70
2018-03-27T16:13:18.065Z,3.57
2018-03-27T16:15:47.508Z,3.83
2018-03-27T16:18:16.949Z,3.80
2018-03-27T16:20:46.403Z,3.83
2018-03-27T16:23:15.857Z,3.90
2018-03-27T16:25:45.345Z,4.17
2018-03-27T16:28:14.809Z,4.40
2018-03-27T16:30:44.281Z,4.60
2018-03-27T16:33:13.764Z,4.37
2018-03-27T16:35:43.192Z,4.23
2018-03-27T16:38:12.648Z,4.40
2018-03-27T16:40:42.118Z,3.90
2018-03-27T16:43:11.555Z,3.87
2018-03-27T16:45:41.024Z,4.00
2018-03-27T16:48:10.498Z,4.20
2018-03-27T16:50:39.970Z,4.33
2018-03-27T16:53:09.429Z,4.87
2018-03-27T16:55:38.889Z,5.27
2018-03-27T16:58:08.346Z,5.10
2018-03-27T17:00:37.804Z,5.60
2018-03-27T17:03:07.270Z,5.70
2018-03-27T17:05:36.732Z,5.13
2018-03-27T17:08:06.195Z,6.10
2018-03-27T17:10:35.654Z,6.00
2018-03-27T17:13:05.114Z,5.90
2018-03-27T17:15:34.573Z,6.60
2018-03-27T17:18:04.041Z,6.97
2018-03-27T17:20:33.501Z,6.90
2018-03-27T17:23:02.961Z,6.40
2018-03-27T17:25:32.425Z,5.93
2018-03-27T17:28:01.881Z,8.43
2018-03-27T17:30:31.346Z,8.50
2018-03-27T17:33:00.818Z,7.57
2018-03-27T17:35:30.292Z,7.80
2018-03-27T17:37:59.757Z,8.43
2018-03-27T17:40:29.234Z,9.27
2018-03-27T17:43:01.367Z,9.63
2018-03-27T17:45:30.825Z,9.73
2018-03-27T17:48:00.282Z,8.20
2018-03-27T17:50:29.799Z,8.47
2018-03-27T17:52:59.253Z,7.97
2018-03-27T17:55:28.716Z,7.13
2018-03-27T17:57:58.173Z,7.63
2018-03-27T18:00:27.641Z,7.63
2018-03-27T18:02:57.111Z,7.43
2018-03-27T18:05:26.565Z,8.23
2018-03-27T18:07:56.075Z,8.00
2018-03-27T18:10:25.533Z,7.93
2018-03-27T18:12:54.994Z,10.30
2018-03-27T18:15:24.469Z,10.50
2018-03-27T18:17:53.946Z,10.33
2018-03-27T18:20:23.412Z,8.97
2018-03-27T18:22:52.890Z,9.37
2018-03-27T18:25:22.350Z,9.93
2018-03-27T18:27:51.805Z,9.70
2018-03-27T18:30:21.302Z,10.77
2018-03-27T18:32:50.765Z,9.53
2018-03-27T18:35:20.233Z,9.90
2018-03-27T18:37:50.293Z,9.40
2018-03-27T18:40:19.877Z,8.63
2018-03-27T18:42:49.358Z,8.80
2018-03-27T18:45:18.809Z,8.13
2018-03-27T18:47:48.266Z,8.47
2018-03-27T18:50:17.725Z,8.87
2018-03-27T18:52:47.195Z,8.23
2018-03-27T18:55:16.662Z,8.47
2018-03-27T18:57:46.120Z,8.20
2018-03-27T19:00:15.583Z,7.83
2018-03-27T19:02:45.035Z,7.97
2018-03-27T19:05:14.498Z,8.40
2018-03-27T19:07:43.986Z,8.87
2018-03-27T19:10:13.432Z,8.00
2018-03-27T19:12:42.904Z,8.90
2018-03-27T19:15:12.402Z,8.50
2018-03-27T19:17:41.856Z,8.10
2018-03-27T19:20:11.316Z,9.07
2018-03-27T19:22:41.626Z,8.70
2018-03-27T19:25:11.078Z,8.47
2018-03-27T19:27:40.537Z,8.90
2018-03-27T19:30:10.011Z,9.10
2018-03-27T19:32:39.489Z,8.07
2018-03-27T19:35:08.954Z,9.13
2018-03-27T19:37:38.429Z,8.90
2018-03-27T19:40:07.898Z,9.23
2018-03-27T19:42:37.361Z,9.20
2018-03-27T19:45:06.845Z,9.50
2018-03-27T19:47:36.336Z,9.57
2018-03-27T19:50:05.857Z,10.03
2018-03-27T19:52:35.439Z,9.13
2018-03-27T19:55:04.951Z,9.40
2018-03-27T19:57:34.409Z,10.77
2018-03-27T20:00:03.882Z,10.60
2018-03-27T20:02:33.341Z,10.37
2018-03-27T20:05:02.813Z,10.33
2018-03-27T22:47:10.633Z,11.57
2018-03-27T22:49:40.110Z,10.67
2018-03-27T22:52:09.572Z,11.30
2018-03-27T22:54:39.053Z,10.83
2018-03-27T22:57:08.531Z,10.83
2018-03-27T22:59:38.011Z,11.33
2018-03-27T23:02:07.486Z,11.00
2018-03-27T23:04:36.958Z,10.30
2018-03-27T23:07:06.414Z,11.40
2018-03-27T23:09:35.891Z,10.97
2018-03-27T23:12:05.351Z,10.80
2018-03-27T23:14:34.820Z,11.20
2018-03-27T23:17:04.288Z,11.27
2018-03-27T23:19:33.760Z,10.30
2018-03-27T23:22:03.228Z,10.33
2018-03-27T23:24:32.699Z,10.90
2018-03-27T23:27:02.500Z,11.20
2018-03-27T23:29:31.985Z,10.47
2018-03-27T23:32:01.455Z,10.43
2018-03-27T23:34:30.939Z,10.90
2018-03-27T23:37:00.426Z,11.03
2018-03-27T23:39:29.894Z,10.30
2018-03-27T23:41:59.354Z,10.53
2018-03-27T23:44:28.850Z,10.93
2018-03-27T23:46:58.319Z,10.33
2018-03-27T23:49:27.782Z,10.57
2018-03-27T23:51:57.274Z,10.60
2018-03-27T23:54:26.729Z,10.30
2018-03-27T23:56:56.208Z,10.30
2018-03-27T23:59:25.689Z,10.30
